createdAt,value
2018-05-15T00:00:57.936Z,0.00
2018-05-15T00:02:51.217Z,0.00
2018-05-15T00:03:51.159Z,0.00
2018-05-15T00:05:44.561Z,0.00
2018-05-15T00:06:44.380Z,0.00
2018-05-15T00:08:37.682Z,0.00
2018-05-15T00:09:37.599Z,0.00
2018-05-15T00:11:30.881Z,0.00
2018-05-15T00:12:30.820Z,0.00
2018-05-15T00:14:24.130Z,0.00
2018-05-15T00:15:24.050Z,0.00
2018-05-15T00:17:17.350Z,0.00
2018-05-15T00:18:17.270Z,0.00
2018-05-15T00:20:10.552Z,0.00
2018-05-15T00:21:10.495Z,0.00
2018-05-15T00:23:03.799Z,0.00
2018-05-15T00:24:03.711Z,0.00
2018-05-15T00:25:57.093Z,0.00
2018-05-15T00:26:56.928Z,0.00
2018-05-15T00:28:50.231Z,0.00
2018-05-15T00:29:50.147Z,0.00
2018-05-15T00:31:43.427Z,0.00
2018-05-15T00:32:43.366Z,0.00
2018-05-15T00:34:36.668Z,0.00
2018-05-15T00:35:36.586Z,0.00
2018-05-15T00:37:29.877Z,0.00
2018-05-15T00:38:29.797Z,0.00
2018-05-15T00:40:23.075Z,0.00
2018-05-15T00:41:23.016Z,0.00
2018-05-15T00:43:16.345Z,0.00
2018-05-15T00:44:16.266Z,0.00
2018-05-15T00:46:09.543Z,0.00
2018-05-15T00:47:09.483Z,0.00
2018-05-15T00:49:02.784Z,0.00
2018-05-15T00:50:02.777Z,0.00
2018-05-15T00:51:55.979Z,0.00
2018-05-15T00:52:55.920Z,0.00
2018-05-15T00:54:49.324Z,0.00
2018-05-15T00:55:49.136Z,0.00
2018-05-15T00:57:42.427Z,0.00
2018-05-15T00:58:42.346Z,0.00
2018-05-15T01:00:35.626Z,0.00
2018-05-15T01:01:35.563Z,0.00
2018-05-15T01:03:28.863Z,0.00
2018-05-15T01:04:28.781Z,0.00
2018-05-15T01:06:22.061Z,0.00
2018-05-15T01:07:21.997Z,0.00
2018-05-15T01:09:15.298Z,0.00
2018-05-15T01:10:15.214Z,0.00
2018-05-15T01:12:08.495Z,0.00
2018-05-15T01:13:08.432Z,0.00
2018-05-15T01:15:01.732Z,0.00
2018-05-15T01:16:01.649Z,0.00
2018-05-15T01:17:54.940Z,0.00
2018-05-15T01:18:54.859Z,0.00
2018-05-15T01:20:48.135Z,0.00
2018-05-15T01:21:48.076Z,0.00
2018-05-15T01:23:41.373Z,0.00
2018-05-15T01:24:41.291Z,0.00
2018-05-15T01:26:34.570Z,0.00
2018-05-15T01:27:34.508Z,0.00
2018-05-15T01:29:27.807Z,0.00
2018-05-15T01:30:27.725Z,0.00
2018-05-15T01:32:21.002Z,0.00
2018-05-15T01:33:20.940Z,0.00
2018-05-15T01:35:14.239Z,0.00
2018-05-15T01:36:14.156Z,0.00
2018-05-15T01:38:07.450Z,0.00
2018-05-15T01:39:07.365Z,0.00
2018-05-15T01:41:00.642Z,0.00
2018-05-15T01:42:00.579Z,0.00
2018-05-15T01:43:53.879Z,0.00
2018-05-15T01:44:53.794Z,0.00
2018-05-15T01:46:47.073Z,0.00
2018-05-15T01:47:47.011Z,0.00
2018-05-15T01:49:40.345Z,0.00
2018-05-15T01:50:40.263Z,0.00
2018-05-15T01:52:33.644Z,0.00
2018-05-15T01:53:33.478Z,0.00
2018-05-15T01:55:26.776Z,0.00
2018-05-15T01:56:26.693Z,0.00
2018-05-15T01:58:19.991Z,0.00
2018-05-15T01:59:19.910Z,0.00
2018-05-15T02:01:13.187Z,0.00
2018-05-15T02:02:13.124Z,0.00
2018-05-15T02:04:06.436Z,0.00
2018-05-15T02:05:06.340Z,0.00
2018-05-15T02:06:59.729Z,0.00
2018-05-15T02:07:59.555Z,0.00
2018-05-15T02:09:52.855Z,0.00
2018-05-15T02:10:52.772Z,0.00
2018-05-15T02:12:46.055Z,0.00
2018-05-15T02:13:45.984Z,0.00
2018-05-15T02:15:39.388Z,0.00
2018-05-15T02:16:39.199Z,0.00
2018-05-15T02:18:32.498Z,0.00
2018-05-15T02:19:32.415Z,0.00
2018-05-15T02:21:25.691Z,0.00
2018-05-15T02:22:25.629Z,0.00
2018-05-15T02:24:18.927Z,0.00
2018-05-15T02:25:18.845Z,0.00
2018-05-15T02:27:12.112Z,0.00
2018-05-15T02:28:12.050Z,0.00
2018-05-15T02:30:05.348Z,0.00
2018-05-15T02:31:05.263Z,0.00
2018-05-15T02:32:58.540Z,0.00
2018-05-15T02:33:58.478Z,0.00
2018-05-15T02:35:51.775Z,0.00
2018-05-15T02:36:51.694Z,0.00
2018-05-15T02:38:45.599Z,0.00
2018-05-15T02:39:44.906Z,0.00
2018-05-15T02:41:38.184Z,0.00
2018-05-15T02:42:38.120Z,0.00
2018-05-15T02:44:31.415Z,0.00
2018-05-15T02:45:31.333Z,0.00
2018-05-15T02:47:24.603Z,0.00
2018-05-15T02:48:24.538Z,0.00
2018-05-15T02:50:17.835Z,0.00
2018-05-15T02:51:17.753Z,0.00
2018-05-15T02:53:11.029Z,0.00
2018-05-15T02:54:10.968Z,0.00
2018-05-15T02:56:04.343Z,0.00
2018-05-15T02:57:04.261Z,0.00
2018-05-15T02:58:57.556Z,0.00
2018-05-15T02:59:57.474Z,0.00
2018-05-15T03:01:50.748Z,0.00
2018-05-15T03:02:50.689Z,0.00
2018-05-15T03:04:43.982Z,0.00
2018-05-15T03:05:43.899Z,0.00
2018-05-15T03:07:37.167Z,0.00
2018-05-15T03:08:37.105Z,0.00
2018-05-15T03:10:30.401Z,0.00
2018-05-15T03:11:30.309Z,0.00
2018-05-15T03:13:23.593Z,0.00
2018-05-15T03:14:23.530Z,0.00
2018-05-15T03:16:16.827Z,0.00
2018-05-15T03:17:16.741Z,0.00
2018-05-15T03:19:10.042Z,0.00
2018-05-15T03:20:09.956Z,0.00
2018-05-15T03:22:03.235Z,0.00
2018-05-15T03:23:03.169Z,0.00
2018-05-15T03:24:56.469Z,0.00
2018-05-15T03:25:56.385Z,0.00
2018-05-15T03:27:49.654Z,0.00
2018-05-15T03:28:49.589Z,0.00
2018-05-15T03:30:42.992Z,0.00
2018-05-15T03:31:42.801Z,0.00
2018-05-15T03:33:36.076Z,0.00
2018-05-15T03:34:36.014Z,0.00
2018-05-15T03:36:29.309Z,5.63
2018-05-15T03:37:29.228Z,5.63
2018-05-15T03:39:22.505Z,5.63
2018-05-15T03:40:22.444Z,5.63
2018-05-15T03:42:15.737Z,5.63
2018-05-15T03:43:15.655Z,5.63
2018-05-15T03:45:08.929Z,5.63
2018-05-15T03:46:08.866Z,11.25
2018-05-15T03:48:02.264Z,11.25
2018-05-15T03:49:02.069Z,11.25
2018-05-15T03:50:55.364Z,11.25
2018-05-15T03:51:55.286Z,11.25
2018-05-15T03:53:48.558Z,11.25
2018-05-15T03:54:48.494Z,16.88
2018-05-15T03:56:41.789Z,16.88
2018-05-15T03:57:41.706Z,16.88
2018-05-15T03:59:34.983Z,16.88
2018-05-15T04:00:34.919Z,16.88
2018-05-15T04:02:28.319Z,22.50
2018-05-15T04:03:28.132Z,22.50
2018-05-15T04:05:21.517Z,22.50
2018-05-15T04:06:21.343Z,22.50
2018-05-15T04:08:14.639Z,28.13
2018-05-15T04:09:14.555Z,28.13
2018-05-15T04:11:07.881Z,28.13
2018-05-15T04:12:07.767Z,28.13
2018-05-15T04:14:01.044Z,28.13
2018-05-15T04:15:00.980Z,33.75
2018-05-15T04:16:54.341Z,33.75
2018-05-15T04:17:54.259Z,33.75
2018-05-15T04:19:47.638Z,33.75
2018-05-15T04:20:47.470Z,33.75
2018-05-15T04:22:40.766Z,39.38
2018-05-15T04:23:40.682Z,39.38
2018-05-15T04:25:33.961Z,39.38
2018-05-15T04:26:33.893Z,39.38
2018-05-15T04:28:27.229Z,39.38
2018-05-15T04:29:27.109Z,45.00
2018-05-15T04:31:20.398Z,45.00
2018-05-15T04:32:20.323Z,45.00
2018-05-15T04:34:13.592Z,45.00
2018-05-15T04:35:13.582Z,45.00
2018-05-15T04:37:06.817Z,50.63
2018-05-15T04:38:06.734Z,50.63
2018-05-15T04:40:00.122Z,50.63
2018-05-15T04:40:59.949Z,50.63
2018-05-15T04:42:53.849Z,56.25
2018-05-15T04:43:53.183Z,56.25
2018-05-15T04:45:46.540Z,56.25
2018-05-15T04:46:46.374Z,56.25
2018-05-15T04:48:39.670Z,56.25
2018-05-15T04:49:39.586Z,56.25
2018-05-15T04:51:32.879Z,61.88
2018-05-15T04:52:32.800Z,61.88
2018-05-15T04:54:26.075Z,61.88
2018-05-15T04:55:26.012Z,61.88
2018-05-15T04:57:19.297Z,61.88
2018-05-15T04:58:19.216Z,61.88
2018-05-15T05:00:12.492Z,67.50
2018-05-15T05:01:12.429Z,67.50
2018-05-15T05:03:05.731Z,67.50
2018-05-15T05:04:05.642Z,67.50
2018-05-15T05:05:59.022Z,67.50
2018-05-15T05:06:58.854Z,67.50
2018-05-15T05:08:52.149Z,73.13
2018-05-15T05:09:52.068Z,73.13
2018-05-15T05:11:45.533Z,73.13
2018-05-15T05:12:45.285Z,73.13
2018-05-15T05:14:38.601Z,73.13
2018-05-15T05:15:38.495Z,73.13
2018-05-15T05:17:31.782Z,78.75
2018-05-15T05:18:31.699Z,78.75
2018-05-15T05:20:24.976Z,78.75
2018-05-15T05:21:24.917Z,78.75
2018-05-15T05:23:18.230Z,78.75
2018-05-15T05:24:18.150Z,78.75
2018-05-15T05:26:11.428Z,78.75
2018-05-15T05:27:11.405Z,84.38
2018-05-15T05:29:04.655Z,84.38
2018-05-15T05:30:04.574Z,84.38
2018-05-15T05:31:57.873Z,84.38
2018-05-15T05:32:57.788Z,84.38
2018-05-15T05:34:51.170Z,84.38
2018-05-15T05:35:51.003Z,84.38
2018-05-15T05:37:44.344Z,90.00
2018-05-15T05:38:44.262Z,90.00
2018-05-15T05:40:37.539Z,90.00
2018-05-15T05:41:37.475Z,90.00
2018-05-15T05:43:30.772Z,90.00
2018-05-15T05:44:30.690Z,90.00
2018-05-15T05:46:24.030Z,90.00
2018-05-15T05:47:23.904Z,90.00
2018-05-15T05:49:17.305Z,95.63
2018-05-15T05:50:17.119Z,95.63
2018-05-15T05:52:10.414Z,95.63
2018-05-15T05:53:10.336Z,95.63
2018-05-15T05:55:03.614Z,95.63
2018-05-15T05:56:03.555Z,95.63
2018-05-15T05:57:56.951Z,95.63
2018-05-15T05:58:56.768Z,95.63
2018-05-15T06:00:50.153Z,95.63
2018-05-15T06:01:49.983Z,95.63
2018-05-15T06:03:43.286Z,95.63
2018-05-15T06:04:43.200Z,101.25
2018-05-15T06:06:36.497Z,101.25
2018-05-15T06:07:36.416Z,101.25
2018-05-15T06:09:29.818Z,101.25
2018-05-15T06:10:29.634Z,101.25
2018-05-15T06:12:22.930Z,106.88
2018-05-15T06:13:22.849Z,106.88
2018-05-15T06:15:16.146Z,106.88
2018-05-15T06:16:16.085Z,106.88
2018-05-15T06:18:09.485Z,112.50
2018-05-15T06:19:09.301Z,112.50
2018-05-15T06:21:02.639Z,112.50
2018-05-15T06:22:02.518Z,112.50
2018-05-15T06:23:55.827Z,118.13
2018-05-15T06:24:55.745Z,123.75
2018-05-15T06:26:49.042Z,135.00
2018-05-15T06:27:48.966Z,135.00
2018-05-15T06:29:42.344Z,151.88
2018-05-15T06:30:42.265Z,185.63
2018-05-15T06:32:35.563Z,399.38
2018-05-15T06:33:35.484Z,478.13
2018-05-15T06:35:28.764Z,433.13
2018-05-15T06:36:28.704Z,292.50
2018-05-15T06:38:22.007Z,174.38
2018-05-15T06:39:21.924Z,168.75
2018-05-15T06:41:15.206Z,213.75
2018-05-15T06:42:15.146Z,343.13
2018-05-15T06:44:08.451Z,438.75
2018-05-15T06:45:08.372Z,450.00
2018-05-15T06:47:01.759Z,461.25
2018-05-15T06:48:01.597Z,466.88
2018-05-15T06:49:54.881Z,461.25
2018-05-15T06:50:54.838Z,455.63
2018-05-15T06:52:48.129Z,438.75
2018-05-15T06:53:48.055Z,438.75
2018-05-15T06:55:41.347Z,416.25
2018-05-15T06:56:41.284Z,416.25
2018-05-15T06:58:34.590Z,399.38
2018-05-15T06:59:34.516Z,399.38
2018-05-15T07:01:27.904Z,388.13
2018-05-15T07:02:27.749Z,382.50
2018-05-15T07:04:21.158Z,376.88
2018-05-15T07:05:20.982Z,376.88
2018-05-15T07:07:14.389Z,382.50
2018-05-15T07:08:14.208Z,376.88
2018-05-15T07:10:07.499Z,376.88
2018-05-15T07:11:07.441Z,371.25
2018-05-15T07:13:00.750Z,371.25
2018-05-15T07:14:00.733Z,365.63
2018-05-15T07:15:53.969Z,360.00
2018-05-15T07:16:53.910Z,360.00
2018-05-15T07:18:47.823Z,354.38
2018-05-15T07:19:47.144Z,343.13
2018-05-15T07:21:40.433Z,326.25
2018-05-15T07:22:40.382Z,320.63
2018-05-15T07:24:33.691Z,303.75
2018-05-15T07:25:33.616Z,298.13
2018-05-15T07:27:27.095Z,286.88
2018-05-15T07:28:26.854Z,281.25
2018-05-15T07:30:20.147Z,270.00
2018-05-15T07:31:20.091Z,270.00
2018-05-15T07:33:13.473Z,270.00
2018-05-15T07:34:13.327Z,270.00
2018-05-15T07:36:06.617Z,270.00
2018-05-15T07:37:06.562Z,264.38
2018-05-15T07:38:59.874Z,264.38
2018-05-15T07:39:59.800Z,264.38
2018-05-15T07:41:53.190Z,241.88
2018-05-15T07:42:53.036Z,270.00
2018-05-15T07:44:46.347Z,281.25
2018-05-15T07:45:46.275Z,264.38
2018-05-15T07:47:39.585Z,264.38
2018-05-15T07:48:39.517Z,236.25
2018-05-15T07:50:33.404Z,247.50
2018-05-15T07:51:32.748Z,247.50
2018-05-15T07:53:26.050Z,247.50
2018-05-15T07:54:25.977Z,241.88
2018-05-15T07:56:19.267Z,241.88
2018-05-15T07:57:19.214Z,236.25
2018-05-15T07:59:12.515Z,230.63
2018-05-15T08:00:12.443Z,230.63
2018-05-15T08:02:05.762Z,230.63
2018-05-15T08:03:05.679Z,225.00
2018-05-15T08:04:58.990Z,225.00
2018-05-15T08:05:58.916Z,225.00
2018-05-15T08:07:52.221Z,219.38
2018-05-15T08:08:52.146Z,219.38
2018-05-15T08:10:45.439Z,219.38
2018-05-15T08:11:45.384Z,219.38
2018-05-15T08:13:39.299Z,219.38
2018-05-15T08:14:38.612Z,219.38
2018-05-15T08:16:31.904Z,219.38
2018-05-15T08:17:31.854Z,219.38
2018-05-15T08:19:25.282Z,219.38
2018-05-15T08:20:25.091Z,219.38
2018-05-15T08:22:18.400Z,225.00
2018-05-15T08:23:18.327Z,225.00
2018-05-15T08:25:11.641Z,219.38
2018-05-15T08:26:11.563Z,213.75
2018-05-15T08:28:04.865Z,236.25
2018-05-15T08:29:04.792Z,230.63
2018-05-15T08:30:58.262Z,230.63
2018-05-15T08:31:58.017Z,225.00
2018-05-15T08:33:51.336Z,225.00
2018-05-15T08:34:51.256Z,230.63
2018-05-15T08:36:44.547Z,225.00
2018-05-15T08:37:44.493Z,230.63
2018-05-15T08:39:37.804Z,236.25
2018-05-15T08:40:37.730Z,236.25
2018-05-15T08:42:31.022Z,236.25
2018-05-15T08:43:30.966Z,225.00
2018-05-15T08:45:24.386Z,225.00
2018-05-15T08:46:24.273Z,225.00
2018-05-15T08:48:17.683Z,213.75
2018-05-15T08:49:17.511Z,219.38
2018-05-15T08:51:10.804Z,213.75
2018-05-15T08:52:10.748Z,219.38
2018-05-15T08:54:04.658Z,219.38
2018-05-15T08:55:03.984Z,225.00
2018-05-15T08:56:57.317Z,225.00
2018-05-15T08:57:57.260Z,219.38
2018-05-15T08:59:50.672Z,225.00
2018-05-15T09:00:50.501Z,219.38
2018-05-15T09:02:43.791Z,219.38
2018-05-15T09:03:43.736Z,225.00
2018-05-15T09:05:37.054Z,219.38
2018-05-15T09:06:36.981Z,219.38
2018-05-15T09:08:30.391Z,225.00
2018-05-15T09:09:30.273Z,225.00
2018-05-15T09:11:23.564Z,225.00
2018-05-15T09:12:23.525Z,219.38
2018-05-15T09:14:16.923Z,225.00
2018-05-15T09:15:16.750Z,230.63
2018-05-15T09:17:10.033Z,225.00
2018-05-15T09:18:09.979Z,225.00
2018-05-15T09:20:03.293Z,219.38
2018-05-15T09:21:03.217Z,219.38
2018-05-15T09:22:56.509Z,219.38
2018-05-15T09:23:56.453Z,219.38
2018-05-15T09:25:50.364Z,219.38
2018-05-15T09:26:49.694Z,230.63
2018-05-15T09:28:43.008Z,230.63
2018-05-15T09:29:42.933Z,230.63
2018-05-15T09:31:36.227Z,230.63
2018-05-15T09:32:36.173Z,236.25
2018-05-15T09:34:29.476Z,236.25
2018-05-15T09:35:29.403Z,230.63
2018-05-15T09:37:22.797Z,225.00
2018-05-15T09:38:22.657Z,236.25
2018-05-15T09:40:16.068Z,225.00
2018-05-15T09:41:15.886Z,191.25
2018-05-15T09:43:09.180Z,213.75
2018-05-15T09:44:09.126Z,225.00
2018-05-15T09:46:02.443Z,253.13
2018-05-15T09:47:02.374Z,225.00
2018-05-15T09:48:55.683Z,225.00
2018-05-15T09:49:55.609Z,213.75
2018-05-15T09:51:48.904Z,247.50
2018-05-15T09:52:48.851Z,264.38
2018-05-15T09:54:42.166Z,275.63
2018-05-15T09:55:42.092Z,281.25
2018-05-15T09:57:35.485Z,281.25
2018-05-15T09:58:35.327Z,281.25
2018-05-15T10:00:28.637Z,286.88
2018-05-15T10:01:28.568Z,281.25
2018-05-15T10:03:21.868Z,253.13
2018-05-15T10:04:21.814Z,241.88
2018-05-15T10:06:15.131Z,241.88
2018-05-15T10:07:15.051Z,253.13
2018-05-15T10:09:08.368Z,247.50
2018-05-15T10:10:08.305Z,253.13
2018-05-15T10:12:01.592Z,270.00
2018-05-15T10:13:01.538Z,275.63
2018-05-15T10:14:54.851Z,281.25
2018-05-15T10:15:54.779Z,281.25
2018-05-15T10:17:48.079Z,286.88
2018-05-15T10:18:48.028Z,286.88
2018-05-15T10:20:41.442Z,275.63
2018-05-15T10:21:41.273Z,275.63
2018-05-15T10:23:34.571Z,270.00
2018-05-15T10:24:34.519Z,275.63
2018-05-15T10:26:27.869Z,281.25
2018-05-15T10:27:27.766Z,275.63
2018-05-15T10:29:21.085Z,258.75
2018-05-15T10:30:21.014Z,264.38
2018-05-15T10:32:14.349Z,230.63
2018-05-15T10:33:14.278Z,241.88
2018-05-15T10:35:07.598Z,247.50
2018-05-15T10:36:07.525Z,236.25
2018-05-15T10:38:00.846Z,241.88
2018-05-15T10:39:00.802Z,247.50
2018-05-15T10:40:54.110Z,241.88
2018-05-15T10:41:54.039Z,253.13
2018-05-15T10:43:47.354Z,253.13
2018-05-15T10:44:47.291Z,253.13
2018-05-15T10:46:40.700Z,247.50
2018-05-15T10:47:40.532Z,241.88
2018-05-15T10:49:33.850Z,247.50
2018-05-15T10:50:33.778Z,247.50
2018-05-15T10:52:27.173Z,247.50
2018-05-15T10:53:27.023Z,241.88
2018-05-15T10:55:20.350Z,236.25
2018-05-15T10:56:20.278Z,241.88
2018-05-15T10:58:13.576Z,241.88
2018-05-15T10:59:13.524Z,236.25
2018-05-15T11:01:06.841Z,230.63
2018-05-15T11:02:06.771Z,230.63
2018-05-15T11:04:00.164Z,219.38
2018-05-15T11:05:00.013Z,225.00
2018-05-15T11:06:53.334Z,230.63
2018-05-15T11:07:53.257Z,202.50
2018-05-15T11:09:46.670Z,236.25
2018-05-15T11:10:46.506Z,247.50
2018-05-15T11:12:39.817Z,241.88
2018-05-15T11:13:39.744Z,241.88
2018-05-15T11:15:33.060Z,213.75
2018-05-15T11:16:32.988Z,213.75
2018-05-15T11:18:26.332Z,213.75
2018-05-15T11:19:26.280Z,191.25
2018-05-15T11:21:19.597Z,157.50
2018-05-15T11:22:19.524Z,123.75
2018-05-15T11:24:12.919Z,213.75
2018-05-15T11:25:12.767Z,213.75
2018-05-15T11:27:06.073Z,202.50
2018-05-15T11:28:05.999Z,208.13
2018-05-15T11:29:59.311Z,185.63
2018-05-15T11:30:59.239Z,180.00
2018-05-15T11:32:52.631Z,174.38
2018-05-15T11:33:52.477Z,174.38
2018-05-15T11:35:45.848Z,168.75
2018-05-15T11:36:45.714Z,168.75
2018-05-15T11:38:39.014Z,168.75
2018-05-15T11:39:38.952Z,174.38
2018-05-15T11:41:32.359Z,168.75
2018-05-15T11:42:32.272Z,168.75
2018-05-15T11:44:25.562Z,168.75
2018-05-15T11:45:25.507Z,168.75
2018-05-15T11:47:18.954Z,168.75
2018-05-15T11:48:19.140Z,168.75
2018-05-15T11:50:12.801Z,163.13
2018-05-15T11:51:12.797Z,163.13
2018-05-15T11:53:05.954Z,163.13
2018-05-15T11:54:05.206Z,163.13
2018-05-15T11:55:58.512Z,163.13
2018-05-15T11:56:58.433Z,163.13
2018-05-15T11:58:51.724Z,163.13
2018-05-15T11:59:51.762Z,163.13
2018-05-15T12:01:44.981Z,163.13
2018-05-15T12:02:44.973Z,163.13
2018-05-15T12:04:38.193Z,168.75
2018-05-15T12:05:38.141Z,168.75
2018-05-15T12:07:31.439Z,163.13
2018-05-15T12:08:31.365Z,163.13
2018-05-15T12:10:24.775Z,163.13
2018-05-15T12:11:24.601Z,163.13
2018-05-15T12:13:17.992Z,163.13
2018-05-15T12:14:17.837Z,163.13
2018-05-15T12:16:11.204Z,163.13
2018-05-15T12:17:11.072Z,163.13
2018-05-15T12:19:04.364Z,163.13
2018-05-15T12:20:04.309Z,163.13
2018-05-15T12:21:57.618Z,163.13
2018-05-15T12:22:57.544Z,163.13
2018-05-15T12:24:50.934Z,157.50
2018-05-15T12:25:50.778Z,163.13
2018-05-15T12:27:44.082Z,163.13
2018-05-15T12:28:44.007Z,163.13
2018-05-15T12:30:37.315Z,163.13
2018-05-15T12:31:37.249Z,163.13
2018-05-15T12:33:30.533Z,157.50
2018-05-15T12:34:30.478Z,151.88
2018-05-15T12:36:24.393Z,123.75
2018-05-15T12:37:23.722Z,95.63
2018-05-15T12:39:17.014Z,140.63
2018-05-15T12:40:16.958Z,151.88
2018-05-15T12:42:10.590Z,151.88
2018-05-15T12:43:10.274Z,151.88
2018-05-15T12:45:03.570Z,151.88
2018-05-15T12:46:03.509Z,151.88
2018-05-15T12:47:56.823Z,151.88
2018-05-15T12:48:56.737Z,151.88
2018-05-15T12:50:50.143Z,151.88
2018-05-15T12:51:49.972Z,146.25
2018-05-15T12:53:43.263Z,146.25
2018-05-15T12:54:43.207Z,146.25
2018-05-15T12:56:36.516Z,146.25
2018-05-15T12:57:36.448Z,146.25
2018-05-15T12:59:29.733Z,146.25
2018-05-15T13:00:29.680Z,146.25
2018-05-15T13:02:23.003Z,146.25
2018-05-15T13:03:22.915Z,146.25
2018-05-15T13:05:16.205Z,146.25
2018-05-15T13:06:16.151Z,146.25
2018-05-15T13:08:09.458Z,146.25
2018-05-15T13:09:09.388Z,140.63
2018-05-15T13:11:02.692Z,140.63
2018-05-15T13:12:02.618Z,140.63
2018-05-15T13:13:56.014Z,140.63
2018-05-15T13:14:55.864Z,140.63
2018-05-15T13:16:49.164Z,140.63
2018-05-15T13:17:49.094Z,140.63
2018-05-15T13:19:42.382Z,140.63
2018-05-15T13:20:42.325Z,140.63
2018-05-15T13:22:35.635Z,140.63
2018-05-15T13:23:35.561Z,140.63
2018-05-15T13:25:28.852Z,140.63
2018-05-15T13:26:28.796Z,140.63
2018-05-15T13:28:22.107Z,140.63
2018-05-15T13:29:22.034Z,146.25
2018-05-15T13:31:15.451Z,140.63
2018-05-15T13:32:15.269Z,140.63
2018-05-15T13:34:08.658Z,140.63
2018-05-15T13:35:08.506Z,140.63
2018-05-15T13:37:01.814Z,140.63
2018-05-15T13:38:01.741Z,146.25
2018-05-15T13:39:55.029Z,140.63
2018-05-15T13:40:54.972Z,140.63
2018-05-15T13:42:48.384Z,146.25
2018-05-15T13:43:48.269Z,146.25
2018-05-15T13:45:41.581Z,146.25
2018-05-15T13:46:41.506Z,146.25
2018-05-15T13:48:34.818Z,146.25
2018-05-15T13:49:34.742Z,146.25
2018-05-15T13:51:28.053Z,157.50
2018-05-15T13:52:27.978Z,157.50
2018-05-15T13:54:21.270Z,163.13
2018-05-15T13:55:21.214Z,163.13
2018-05-15T13:57:14.627Z,157.50
2018-05-15T13:58:14.444Z,163.13
2018-05-15T14:00:07.734Z,174.38
2018-05-15T14:01:07.679Z,168.75
2018-05-15T14:03:00.991Z,163.13
2018-05-15T14:04:00.915Z,157.50
2018-05-15T14:05:54.307Z,146.25
2018-05-15T14:06:54.154Z,146.25
2018-05-15T14:08:47.468Z,140.63
2018-05-15T14:09:47.394Z,146.25
2018-05-15T14:11:40.800Z,140.63
2018-05-15T14:12:40.629Z,140.63
2018-05-15T14:14:33.920Z,140.63
2018-05-15T14:15:33.866Z,135.00
2018-05-15T14:17:27.169Z,101.25
2018-05-15T14:18:27.094Z,140.63
2018-05-15T14:20:21.234Z,146.25
2018-05-15T14:21:21.179Z,151.88
2018-05-15T14:23:14.493Z,140.63
2018-05-15T14:24:14.415Z,140.63
2018-05-15T14:26:07.707Z,140.63
2018-05-15T14:27:07.651Z,140.63
2018-05-15T14:29:00.962Z,140.63
2018-05-15T14:30:00.890Z,140.63
2018-05-15T14:31:54.311Z,140.63
2018-05-15T14:32:54.127Z,140.63
2018-05-15T14:34:47.418Z,146.25
2018-05-15T14:35:47.364Z,146.25
2018-05-15T14:37:40.676Z,146.25
2018-05-15T14:38:40.605Z,146.25
2018-05-15T14:40:33.899Z,140.63
2018-05-15T14:41:33.843Z,129.38
2018-05-15T14:43:27.153Z,90.00
2018-05-15T14:44:27.080Z,106.88
2018-05-15T14:46:20.379Z,140.63
2018-05-15T14:47:20.318Z,135.00
2018-05-15T14:49:13.728Z,135.00
2018-05-15T14:50:13.563Z,135.00
2018-05-15T14:52:06.875Z,140.63
2018-05-15T14:53:06.793Z,140.63
2018-05-15T14:55:00.185Z,140.63
2018-05-15T14:56:00.032Z,129.38
2018-05-15T14:57:53.335Z,129.38
2018-05-15T14:58:53.262Z,135.00
2018-05-15T15:00:46.654Z,140.63
2018-05-15T15:01:46.499Z,140.63
2018-05-15T15:03:39.809Z,135.00
2018-05-15T15:04:39.737Z,135.00
2018-05-15T15:06:33.034Z,129.38
2018-05-15T15:07:32.977Z,129.38
2018-05-15T15:09:26.342Z,129.38
2018-05-15T15:10:26.269Z,123.75
2018-05-15T15:12:19.583Z,90.00
2018-05-15T15:13:19.505Z,90.00
2018-05-15T15:15:12.798Z,90.00
2018-05-15T15:16:12.742Z,95.63
2018-05-15T15:18:06.047Z,129.38
2018-05-15T15:19:05.972Z,129.38
2018-05-15T15:20:59.264Z,135.00
2018-05-15T15:21:59.214Z,135.00
2018-05-15T15:23:52.620Z,135.00
2018-05-15T15:24:52.445Z,135.00
2018-05-15T15:26:45.737Z,146.25
2018-05-15T15:27:45.681Z,140.63
2018-05-15T15:29:38.992Z,140.63
2018-05-15T15:30:38.920Z,140.63
2018-05-15T15:32:32.226Z,146.25
2018-05-15T15:33:32.153Z,146.25
2018-05-15T15:35:25.451Z,146.25
2018-05-15T15:36:25.398Z,151.88
2018-05-15T15:38:18.709Z,146.25
2018-05-15T15:39:18.635Z,151.88
2018-05-15T15:41:11.928Z,151.88
2018-05-15T15:42:11.873Z,157.50
2018-05-15T15:44:05.188Z,151.88
2018-05-15T15:45:05.110Z,146.25
2018-05-15T15:46:58.401Z,140.63
2018-05-15T15:47:58.346Z,129.38
2018-05-15T15:49:51.664Z,95.63
2018-05-15T15:50:51.591Z,95.63
2018-05-15T15:52:44.902Z,123.75
2018-05-15T15:53:44.831Z,123.75
2018-05-15T15:55:38.124Z,112.50
2018-05-15T15:56:38.068Z,106.88
2018-05-15T15:58:31.379Z,112.50
2018-05-15T15:59:31.306Z,118.13
2018-05-15T16:01:24.598Z,123.75
2018-05-15T16:02:24.544Z,123.75
2018-05-15T16:04:17.855Z,140.63
2018-05-15T16:05:17.781Z,129.38
2018-05-15T16:07:11.085Z,123.75
2018-05-15T16:08:11.030Z,140.63
2018-05-15T16:10:04.454Z,140.63
2018-05-15T16:11:04.273Z,140.63
2018-05-15T16:12:57.680Z,140.63
2018-05-15T16:13:57.508Z,135.00
2018-05-15T16:15:50.799Z,112.50
2018-05-15T16:16:50.746Z,112.50
2018-05-15T16:18:44.059Z,101.25
2018-05-15T16:19:43.980Z,95.63
2018-05-15T16:21:37.275Z,90.00
2018-05-15T16:22:37.221Z,90.00
2018-05-15T16:24:30.534Z,84.38
2018-05-15T16:25:30.458Z,84.38
2018-05-15T16:27:23.744Z,84.38
2018-05-15T16:28:23.688Z,90.00
2018-05-15T16:30:17.001Z,73.13
2018-05-15T16:31:16.927Z,73.13
2018-05-15T16:33:10.238Z,67.50
2018-05-15T16:34:10.165Z,67.50
2018-05-15T16:36:03.459Z,61.88
2018-05-15T16:37:03.405Z,67.50
2018-05-15T16:38:56.719Z,61.88
2018-05-15T16:39:56.643Z,67.50
2018-05-15T16:41:49.935Z,67.50
2018-05-15T16:42:49.878Z,67.50
2018-05-15T16:44:43.192Z,73.13
2018-05-15T16:45:43.118Z,78.75
2018-05-15T16:47:36.402Z,78.75
2018-05-15T16:48:36.347Z,84.38
2018-05-15T16:50:29.659Z,84.38
2018-05-15T16:51:29.583Z,84.38
2018-05-15T16:53:22.959Z,84.38
2018-05-15T16:54:22.822Z,84.38
2018-05-15T16:56:16.108Z,90.00
2018-05-15T16:57:16.058Z,90.00
2018-05-15T16:59:09.367Z,95.63
2018-05-15T17:00:09.294Z,95.63
2018-05-15T17:02:02.588Z,106.88
2018-05-15T17:03:02.538Z,95.63
2018-05-15T17:04:55.842Z,95.63
2018-05-15T17:05:55.768Z,90.00
2018-05-15T17:07:49.115Z,84.38
2018-05-15T17:08:49.031Z,84.38
2018-05-15T17:10:42.345Z,73.13
2018-05-15T17:11:42.267Z,73.13
2018-05-15T17:13:35.652Z,67.50
2018-05-15T17:14:35.506Z,73.13
2018-05-15T17:16:28.795Z,73.13
2018-05-15T17:17:28.740Z,73.13
2018-05-15T17:19:22.051Z,73.13
2018-05-15T17:20:21.977Z,78.75
2018-05-15T17:22:15.267Z,84.38
2018-05-15T17:23:15.226Z,84.38
2018-05-15T17:25:08.517Z,84.38
2018-05-15T17:26:08.449Z,84.38
2018-05-15T17:28:01.731Z,90.00
2018-05-15T17:29:01.678Z,90.00
2018-05-15T17:30:54.988Z,90.00
2018-05-15T17:31:54.912Z,90.00
2018-05-15T17:33:48.205Z,90.00
2018-05-15T17:34:48.146Z,90.00
2018-05-15T17:36:41.461Z,90.00
2018-05-15T17:37:41.388Z,90.00
2018-05-15T17:39:34.698Z,90.00
2018-05-15T17:40:34.626Z,90.00
2018-05-15T17:42:27.918Z,90.00
2018-05-15T17:43:27.860Z,90.00
2018-05-15T17:45:21.171Z,90.00
2018-05-15T17:46:21.095Z,90.00
2018-05-15T17:48:14.390Z,90.00
2018-05-15T17:49:14.333Z,84.38
2018-05-15T17:51:07.645Z,78.75
2018-05-15T17:52:07.571Z,78.75
2018-05-15T17:54:00.862Z,73.13
2018-05-15T17:55:00.808Z,67.50
2018-05-15T17:56:54.121Z,67.50
2018-05-15T17:57:54.044Z,67.50
2018-05-15T17:59:47.432Z,61.88
2018-05-15T18:00:47.280Z,61.88
2018-05-15T18:02:40.589Z,61.88
2018-05-15T18:03:40.516Z,61.88
2018-05-15T18:05:33.825Z,61.88
2018-05-15T18:06:33.752Z,61.88
2018-05-15T18:08:27.139Z,61.88
2018-05-15T18:09:26.990Z,61.88
2018-05-15T18:11:20.361Z,56.25
2018-05-15T18:12:20.268Z,56.25
2018-05-15T18:14:13.560Z,50.63
2018-05-15T18:15:13.566Z,50.63
2018-05-15T18:17:06.806Z,50.63
2018-05-15T18:18:06.732Z,45.00
2018-05-15T18:20:00.027Z,45.00
2018-05-15T18:20:59.984Z,39.38
2018-05-15T18:22:53.298Z,33.75
2018-05-15T18:23:53.228Z,33.75